createdAt,value
2022-11-09T00:00:50.707Z,52463.56
2022-11-09T00:03:22.333Z,52447.89
2022-11-09T00:06:03.015Z,52459.14
2022-11-09T00:08:34.647Z,52467.98
2022-11-09T00:11:07.825Z,52464.37
2022-11-09T00:13:40.532Z,52449.90
2022-11-09T00:16:13.408Z,52452.71
2022-11-09T00:18:47.792Z,52460.35
2022-11-09T00:21:20.971Z,52451.51
2022-11-09T00:23:52.468Z,52447.49
2022-11-09T00:26:24.137Z,52474.01
2022-11-09T00:28:53.862Z,52473.61
2022-11-09T00:31:25.760Z,52463.57
2022-11-09T00:33:58.256Z,52459.54
2022-11-09T00:36:30.155Z,52447.09
2022-11-09T00:39:01.904Z,52446.68
2022-11-09T00:41:33.604Z,52445.07
2022-11-09T00:44:06.221Z,52445.48
2022-11-09T00:46:37.984Z,52443.47
2022-11-09T00:49:10.259Z,52452.71
2022-11-09T00:51:41.905Z,52457.13
2022-11-09T00:54:14.397Z,52449.90
2022-11-09T00:56:46.007Z,52466.38
2022-11-09T00:59:16.248Z,52457.54
2022-11-09T01:01:48.164Z,52465.17
2022-11-09T01:04:19.718Z,52437.04
2022-11-09T01:06:49.851Z,52452.31
2022-11-09T01:09:21.542Z,52458.74
2022-11-09T01:11:51.606Z,52449.50
2022-11-09T01:14:26.794Z,52461.16
2022-11-09T01:16:58.624Z,52466.77
2022-11-09T01:19:30.976Z,52467.98
2022-11-09T01:22:02.474Z,52452.71
2022-11-09T01:24:33.902Z,52461.15
2022-11-09T01:27:05.725Z,52453.11
2022-11-09T01:29:37.227Z,52447.89
2022-11-09T01:32:07.097Z,52457.54
2022-11-09T01:34:38.533Z,52480.04
2022-11-09T01:37:09.906Z,52459.95
2022-11-09T01:39:41.618Z,52461.15
2022-11-09T01:42:11.314Z,52465.57
2022-11-09T01:44:46.752Z,52454.72
2022-11-09T01:47:18.928Z,52458.74
2022-11-09T01:49:51.452Z,52478.84
2022-11-09T01:52:24.747Z,52462.76
2022-11-09T01:55:02.238Z,52467.18
2022-11-09T01:57:36.042Z,52465.98
2022-11-09T02:00:10.122Z,52478.03
2022-11-09T02:02:49.474Z,52455.13
2022-11-09T02:05:23.425Z,52454.73
2022-11-09T02:07:56.727Z,52448.29
2022-11-09T02:10:30.662Z,52466.78
2022-11-09T02:13:04.096Z,52448.29
2022-11-09T02:15:45.411Z,52451.51
2022-11-09T02:18:17.584Z,52464.37
2022-11-09T02:20:50.459Z,52475.62
2022-11-09T02:23:22.307Z,52455.93
2022-11-09T02:25:56.546Z,52451.11
2022-11-09T02:28:29.112Z,52448.29
2022-11-09T02:31:00.635Z,52462.36
2022-11-09T02:33:30.646Z,52473.21
2022-11-09T02:36:03.397Z,52460.75
2022-11-09T02:38:35.077Z,52455.52
2022-11-09T02:41:07.068Z,52443.47
2022-11-09T02:43:39.068Z,52454.32
2022-11-09T02:46:10.793Z,52457.94
2022-11-09T02:48:42.466Z,52457.53
2022-11-09T02:51:12.435Z,52466.38
2022-11-09T02:53:44.122Z,52445.88
2022-11-09T02:56:16.145Z,52452.71
2022-11-09T02:58:47.579Z,52454.73
2022-11-09T03:01:19.038Z,52475.62
2022-11-09T03:03:49.023Z,52469.99
2022-11-09T03:06:20.372Z,52469.99
2022-11-09T03:08:51.857Z,52471.60
2022-11-09T03:11:23.887Z,52461.96
2022-11-09T03:13:55.854Z,52460.35
2022-11-09T03:16:27.421Z,52463.16
2022-11-09T03:18:59.113Z,52459.54
2022-11-09T03:21:28.869Z,52457.13
2022-11-09T03:24:00.487Z,52452.71
2022-11-09T03:26:30.572Z,52454.72
2022-11-09T03:29:02.962Z,52467.58
2022-11-09T03:31:34.854Z,52477.63
2022-11-09T03:34:08.701Z,52472.41
2022-11-09T03:36:40.472Z,52446.28
2022-11-09T03:39:12.124Z,52475.21
2022-11-09T03:41:41.829Z,52475.22
2022-11-09T03:44:13.687Z,52467.99
2022-11-09T03:46:45.362Z,52466.38
2022-11-09T03:49:15.322Z,52463.56
2022-11-09T03:51:47.138Z,52464.37
2022-11-09T03:54:18.895Z,52476.43
2022-11-09T03:56:50.350Z,52449.10
2022-11-09T03:59:21.971Z,52473.61
2022-11-09T04:01:51.941Z,52463.16
2022-11-09T04:04:23.457Z,52448.70
2022-11-09T04:06:55.156Z,52455.52
2022-11-09T04:09:26.966Z,52458.74
2022-11-09T04:11:58.372Z,52460.35
2022-11-09T04:14:29.880Z,52442.27
2022-11-09T04:17:01.536Z,52452.30
2022-11-09T04:19:31.560Z,52455.93
2022-11-09T04:22:03.264Z,52463.56
2022-11-09T04:24:34.673Z,52457.94
2022-11-09T04:27:06.382Z,52457.54
2022-11-09T04:29:36.131Z,52463.96
2022-11-09T04:32:07.654Z,52465.98
2022-11-09T04:34:37.393Z,52455.93
2022-11-09T04:37:08.801Z,52461.15
2022-11-09T04:39:40.339Z,52456.33
2022-11-09T04:42:11.712Z,52455.93
2022-11-09T04:44:43.162Z,52459.95
2022-11-09T04:47:14.521Z,52463.16
2022-11-09T04:49:46.338Z,52467.58
2022-11-09T04:52:17.730Z,52454.32
2022-11-09T04:54:47.811Z,52461.96
2022-11-09T04:57:19.216Z,52467.18
2022-11-09T04:59:50.920Z,52464.37
2022-11-09T05:02:20.525Z,52460.35
2022-11-09T05:04:52.412Z,52453.92
2022-11-09T05:07:24.310Z,52438.24
2022-11-09T05:09:55.887Z,52458.74
2022-11-09T05:12:25.969Z,52427.39
2022-11-09T05:14:57.515Z,52456.33
2022-11-09T05:17:28.960Z,52447.89
2022-11-09T05:20:00.436Z,52466.77
2022-11-09T05:22:45.594Z,52467.58
2022-11-09T05:25:17.434Z,52465.98
2022-11-09T05:27:49.719Z,52438.64
2022-11-09T05:30:21.588Z,52451.51
2022-11-09T05:32:53.852Z,52451.91
2022-11-09T05:35:25.377Z,52467.18
2022-11-09T05:37:55.374Z,52445.88
2022-11-09T05:40:27.247Z,52447.49
2022-11-09T05:42:58.774Z,52441.86
2022-11-09T05:45:45.983Z,52446.27
2022-11-09T05:48:18.944Z,52440.66
2022-11-09T05:50:50.632Z,52432.22
2022-11-09T05:53:31.563Z,52414.53
2022-11-09T05:56:06.481Z,52455.13
2022-11-09T05:58:39.153Z,52446.28
2022-11-09T06:01:11.786Z,52439.85
2022-11-09T06:03:44.615Z,52439.86
2022-11-09T06:06:17.279Z,52431.81
2022-11-09T06:08:48.663Z,52441.86
2022-11-09T06:11:24.145Z,52416.54
2022-11-09T06:13:56.132Z,52451.51
2022-11-09T06:16:27.475Z,52436.64
2022-11-09T06:18:58.975Z,52433.02
2022-11-09T06:21:30.301Z,52441.86
2022-11-09T06:24:01.937Z,52439.05
2022-11-09T06:26:32.138Z,52444.68
2022-11-09T06:29:04.023Z,52439.85
2022-11-09T06:31:33.938Z,52426.59
2022-11-09T06:34:06.188Z,52444.68
2022-11-09T06:36:38.631Z,52447.89
2022-11-09T06:39:11.172Z,52454.73
2022-11-09T06:41:47.730Z,52454.73
2022-11-09T06:44:20.917Z,52430.61
2022-11-09T06:46:56.260Z,52441.05
2022-11-09T06:49:33.710Z,52429.00
2022-11-09T06:52:07.708Z,52422.57
2022-11-09T06:54:40.336Z,52449.50
2022-11-09T06:57:11.983Z,52440.26
2022-11-09T06:59:41.738Z,52430.61
2022-11-09T07:02:13.776Z,52446.68
2022-11-09T07:04:45.157Z,52438.65
2022-11-09T07:07:16.622Z,52437.84
2022-11-09T07:09:48.078Z,52434.23
2022-11-09T07:12:19.700Z,52459.95
2022-11-09T07:14:51.452Z,52434.63
2022-11-09T07:17:21.202Z,52412.93
2022-11-09T07:19:52.623Z,52439.45
2022-11-09T07:22:24.232Z,52433.82
2022-11-09T07:24:54.063Z,52424.58
2022-11-09T07:27:28.169Z,52444.68
2022-11-09T07:30:00.056Z,52421.37
2022-11-09T07:33:01.884Z,52439.05
2022-11-09T07:35:22.898Z,52437.04
2022-11-09T07:37:52.815Z,52426.59
2022-11-09T07:40:24.360Z,52425.79
2022-11-09T07:42:55.731Z,52414.54
2022-11-09T07:45:27.340Z,52422.97
2022-11-09T07:48:00.277Z,52419.36
2022-11-09T07:50:32.240Z,52413.33
2022-11-09T07:53:04.183Z,52433.43
2022-11-09T07:55:35.827Z,52435.83
2022-11-09T07:58:11.045Z,52418.96
2022-11-09T08:00:42.960Z,52421.37
2022-11-09T08:03:14.871Z,52418.55
2022-11-09T08:05:46.847Z,52423.38
2022-11-09T08:08:18.733Z,52418.15
2022-11-09T08:10:53.344Z,52429.40
2022-11-09T08:13:24.843Z,52427.39
2022-11-09T08:15:54.793Z,52433.02
2022-11-09T08:18:26.789Z,52421.37
2022-11-09T08:20:58.656Z,52424.58
2022-11-09T08:23:30.946Z,52422.98
2022-11-09T08:26:05.188Z,52410.11
2022-11-09T08:28:36.948Z,52416.14
2022-11-09T08:31:10.791Z,52431.82
2022-11-09T08:33:43.250Z,52425.79
2022-11-09T08:36:16.218Z,52420.16
2022-11-09T08:38:48.020Z,52434.63
2022-11-09T08:41:20.086Z,52434.23
2022-11-09T08:43:52.057Z,52412.13
2022-11-09T08:46:24.241Z,52428.20
2022-11-09T08:48:56.071Z,52424.58
2022-11-09T08:51:28.202Z,52432.22
2022-11-09T08:53:58.370Z,52399.27
2022-11-09T08:56:30.128Z,52420.96
2022-11-09T08:59:00.030Z,52399.66
2022-11-09T09:01:31.746Z,52416.95
2022-11-09T09:04:03.121Z,52411.32
2022-11-09T09:06:34.811Z,52416.54
2022-11-09T09:09:04.589Z,52400.47
2022-11-09T09:11:36.298Z,52383.99
2022-11-09T09:14:06.282Z,52399.26
2022-11-09T09:16:37.905Z,52402.88
2022-11-09T09:19:08.073Z,52398.46
2022-11-09T09:21:39.781Z,52401.27
2022-11-09T09:24:10.369Z,52386.00
2022-11-09T09:26:41.871Z,52389.21
2022-11-09T09:29:13.634Z,52389.21
2022-11-09T09:31:43.462Z,52394.44
2022-11-09T09:34:15.114Z,52386.80
2022-11-09T09:36:48.060Z,52402.48
2022-11-09T09:39:20.183Z,52392.03
2022-11-09T09:41:51.069Z,52388.81
2022-11-09T09:44:26.686Z,52391.63
2022-11-09T09:47:00.266Z,52385.20
2022-11-09T09:49:32.154Z,52397.66
2022-11-09T09:52:05.301Z,52387.21
2022-11-09T09:54:41.151Z,52396.04
2022-11-09T09:57:17.118Z,52365.51
2022-11-09T09:59:51.001Z,52378.77
2022-11-09T10:02:26.342Z,52377.56
2022-11-09T10:04:58.962Z,52359.48
2022-11-09T10:07:32.077Z,52389.62
2022-11-09T10:10:22.151Z,52377.16
2022-11-09T10:13:02.270Z,52383.99
2022-11-09T10:15:35.357Z,52375.15
2022-11-09T10:18:16.837Z,52394.04
2022-11-09T10:21:08.853Z,52370.73
2022-11-09T10:23:41.996Z,52391.63
2022-11-09T10:26:19.620Z,52378.77
2022-11-09T10:29:15.176Z,52380.77
2022-11-09T10:31:45.640Z,52375.15
2022-11-09T10:34:21.025Z,52373.54
2022-11-09T10:36:58.246Z,52390.02
2022-11-09T10:39:33.640Z,52371.54
2022-11-09T10:42:24.083Z,52376.36
2022-11-09T10:45:23.414Z,52386.80
2022-11-09T10:48:14.302Z,52373.14
2022-11-09T10:51:05.060Z,52367.11
2022-11-09T10:53:56.008Z,52386.80
2022-11-09T10:59:59.419Z,52375.95
2022-11-09T11:02:52.318Z,52382.38
2022-11-09T11:05:43.508Z,52384.39
2022-11-09T11:08:36.574Z,52371.94
2022-11-09T11:11:36.094Z,52359.48
2022-11-09T11:14:32.158Z,52358.27
2022-11-09T11:17:26.721Z,52358.27
2022-11-09T11:20:31.474Z,52357.87
2022-11-09T11:23:22.916Z,52359.07
2022-11-09T11:26:31.893Z,52375.15
2022-11-09T11:29:31.167Z,52364.30
2022-11-09T11:32:21.690Z,52375.95
2022-11-09T11:35:17.261Z,52357.07
2022-11-09T11:38:15.599Z,52374.35
2022-11-09T11:41:10.941Z,52370.32
2022-11-09T11:44:03.734Z,52369.52
2022-11-09T11:47:00.268Z,52370.32
2022-11-09T11:50:03.834Z,52370.33
2022-11-09T11:53:08.401Z,52381.98
2022-11-09T11:56:22.030Z,52388.41
2022-11-09T11:59:39.111Z,52378.77
2022-11-09T12:02:49.918Z,52355.05
2022-11-09T12:05:57.849Z,52369.93
2022-11-09T12:08:55.754Z,52371.94
2022-11-09T12:11:55.298Z,52357.47
2022-11-09T12:14:50.676Z,52361.89
2022-11-09T12:17:44.894Z,52372.74
2022-11-09T12:20:38.459Z,52369.93
2022-11-09T12:23:36.615Z,52368.72
2022-11-09T12:26:31.649Z,52368.32
2022-11-09T12:29:24.300Z,52367.92
2022-11-09T12:32:21.955Z,52376.76
2022-11-09T12:35:30.806Z,52369.93
2022-11-09T12:38:28.693Z,52357.47
2022-11-09T12:41:20.252Z,52379.17
2022-11-09T12:44:17.059Z,52370.73
2022-11-09T12:47:09.639Z,52359.07
2022-11-09T12:50:00.044Z,52367.11
2022-11-09T12:52:52.401Z,52361.89
2022-11-09T12:55:47.733Z,52381.18
2022-11-09T12:58:38.279Z,52377.16
2022-11-09T13:01:50.028Z,52377.56
2022-11-09T13:04:40.417Z,52374.75
2022-11-09T13:07:40.720Z,52357.87
2022-11-09T13:10:34.782Z,52375.95
2022-11-09T13:13:26.861Z,52372.34
2022-11-09T13:16:34.837Z,52356.26
2022-11-09T13:19:56.241Z,52367.91
2022-11-09T13:23:03.320Z,52374.75
2022-11-09T13:25:54.547Z,52369.93
2022-11-09T13:28:46.959Z,52375.95
2022-11-09T13:31:53.000Z,52379.57
2022-11-09T13:34:45.044Z,52373.54
2022-11-09T13:37:49.616Z,52382.79
2022-11-09T13:40:52.094Z,52390.43
2022-11-09T13:43:42.514Z,52381.58
2022-11-09T13:46:41.263Z,52368.32
2022-11-09T13:49:49.819Z,52369.93
2022-11-09T13:52:51.809Z,52393.23
2022-11-09T13:55:42.498Z,52357.87
2022-11-09T13:58:34.999Z,52374.75
2022-11-09T14:01:37.935Z,52370.73
2022-11-09T14:04:31.419Z,52372.34
2022-11-09T14:07:23.792Z,52375.15
2022-11-09T14:10:20.546Z,52373.95
2022-11-09T14:13:21.529Z,52374.35
2022-11-09T14:16:15.377Z,52385.60
2022-11-09T14:19:18.986Z,52385.20
2022-11-09T14:22:17.798Z,52383.99
2022-11-09T14:25:16.732Z,52407.70
2022-11-09T14:28:22.044Z,52388.41
2022-11-09T14:31:24.010Z,52381.18
2022-11-09T14:34:17.945Z,52384.79
2022-11-09T14:37:10.696Z,52388.81
2022-11-09T14:40:01.173Z,52386.80
2022-11-09T14:42:53.847Z,52396.85
2022-11-09T14:45:52.250Z,52387.21
2022-11-09T14:48:45.923Z,52390.82
2022-11-09T14:51:38.678Z,52406.90
2022-11-09T14:54:29.205Z,52391.63
2022-11-09T14:57:19.593Z,52408.51
2022-11-09T15:00:25.502Z,52405.69
2022-11-09T15:03:31.890Z,52396.85
2022-11-09T15:06:22.094Z,52412.93
2022-11-09T15:09:15.972Z,52410.92
2022-11-09T15:12:07.449Z,52404.89
2022-11-09T15:14:58.988Z,52430.21
2022-11-09T15:17:49.303Z,52403.28
2022-11-09T15:20:39.828Z,52413.73
2022-11-09T15:23:40.771Z,52410.92
2022-11-09T15:26:37.533Z,52420.56
2022-11-09T15:29:36.526Z,52420.56
2022-11-09T15:32:27.041Z,52408.91
2022-11-09T15:35:19.743Z,52410.51
2022-11-09T15:38:33.342Z,52416.14
2022-11-09T15:41:24.012Z,52400.07
2022-11-09T15:44:15.379Z,52418.55
2022-11-09T15:47:07.587Z,52423.78
2022-11-09T15:49:58.475Z,52411.72
2022-11-09T15:52:49.354Z,52404.49
2022-11-09T15:55:40.072Z,52429.80
2022-11-09T15:58:30.825Z,52419.76
2022-11-09T16:01:21.162Z,52421.37
2022-11-09T16:04:11.601Z,52400.87
2022-11-09T16:07:01.856Z,52406.90
2022-11-09T16:09:52.291Z,52414.54
2022-11-09T16:12:46.242Z,52405.29
2022-11-09T16:15:36.987Z,52424.58
2022-11-09T16:18:27.600Z,52422.57
2022-11-09T16:21:18.637Z,52431.81
2022-11-09T16:24:09.424Z,52413.73
2022-11-09T16:26:59.901Z,52423.38
2022-11-09T16:29:50.178Z,52413.73
2022-11-09T16:32:40.308Z,52411.32
2022-11-09T16:35:30.258Z,52420.16
2022-11-09T16:38:20.606Z,52421.77
2022-11-09T16:41:11.027Z,52437.85
2022-11-09T16:44:01.291Z,52443.47
2022-11-09T16:46:52.336Z,52418.55
2022-11-09T16:49:42.728Z,52443.48
2022-11-09T16:52:33.154Z,52433.43
2022-11-09T16:55:23.561Z,52445.07
2022-11-09T16:58:13.449Z,52424.98
2022-11-09T17:01:11.551Z,52442.26
2022-11-09T17:04:02.331Z,52438.24
2022-11-09T17:06:53.105Z,52429.80
2022-11-09T17:09:43.204Z,52432.22
2022-11-09T17:12:34.103Z,52437.84
2022-11-09T17:15:24.554Z,52449.50
2022-11-09T17:18:15.032Z,52431.41
2022-11-09T17:21:05.281Z,52418.95
2022-11-09T17:23:55.423Z,52439.45
2022-11-09T17:26:46.351Z,52420.96
2022-11-09T17:29:37.564Z,52437.84
2022-11-09T17:32:28.444Z,52425.79
2022-11-09T17:35:18.951Z,52446.69
2022-11-09T17:38:08.977Z,52433.02
2022-11-09T17:41:06.175Z,52435.84
2022-11-09T17:43:56.723Z,52435.03
2022-11-09T17:46:47.981Z,52428.60
2022-11-09T17:49:38.298Z,52442.67
2022-11-09T17:52:28.492Z,52443.07
2022-11-09T17:55:18.587Z,52441.05
2022-11-09T17:58:08.731Z,52433.43
2022-11-09T18:00:59.377Z,52446.69
2022-11-09T18:03:49.398Z,52449.49
2022-11-09T18:06:39.929Z,52441.46
2022-11-09T18:09:46.007Z,52456.32
2022-11-09T18:12:36.023Z,52455.52
2022-11-09T18:15:26.168Z,52464.36
2022-11-09T18:18:16.199Z,52467.59
2022-11-09T18:21:10.646Z,52452.71
2022-11-09T18:24:01.081Z,52443.87
2022-11-09T18:26:51.569Z,52454.73
2022-11-09T18:29:42.493Z,52439.85
2022-11-09T18:32:33.796Z,52445.88
2022-11-09T18:35:24.339Z,52460.35
2022-11-09T18:38:17.497Z,52461.16
2022-11-09T18:41:11.095Z,52453.11
2022-11-09T18:44:27.257Z,52463.96
2022-11-09T18:47:17.428Z,52441.46
2022-11-09T18:50:09.879Z,52436.64
2022-11-09T18:52:59.950Z,52450.30
2022-11-09T18:55:50.048Z,52440.66
2022-11-09T18:58:39.966Z,52454.73
2022-11-09T19:01:30.414Z,52464.77
2022-11-09T19:04:20.600Z,52455.13
2022-11-09T19:07:11.044Z,52452.31
2022-11-09T19:10:01.377Z,52453.92
2022-11-09T19:12:51.789Z,52463.96
2022-11-09T19:15:42.828Z,52457.94
2022-11-09T19:18:33.262Z,52458.74
2022-11-09T19:21:38.483Z,52464.77
2022-11-09T19:24:31.208Z,52474.41
2022-11-09T19:27:21.240Z,52473.61
2022-11-09T19:30:13.007Z,52455.13
2022-11-09T19:33:03.839Z,52433.43
2022-11-09T19:36:23.270Z,52477.63
2022-11-09T19:39:05.625Z,52457.54
2022-11-09T19:41:56.267Z,52453.92
2022-11-09T19:44:48.914Z,52455.13
2022-11-09T19:47:42.779Z,52463.96
2022-11-09T19:50:33.602Z,52458.34
2022-11-09T19:53:24.099Z,52459.54
2022-11-09T19:56:14.663Z,52467.59
2022-11-09T19:59:05.001Z,52454.32
2022-11-09T20:01:56.341Z,52451.51
2022-11-09T20:04:47.778Z,52458.74
2022-11-09T20:07:38.024Z,52449.49
2022-11-09T20:10:28.316Z,52457.14
2022-11-09T20:13:20.721Z,52459.54
2022-11-09T20:16:11.778Z,52458.34
2022-11-09T20:19:01.951Z,52458.74
2022-11-09T20:21:51.863Z,52448.29
2022-11-09T20:24:42.421Z,52466.38
2022-11-09T20:27:32.698Z,52447.09
2022-11-09T20:30:22.961Z,52441.05
2022-11-09T20:33:13.044Z,52451.51
2022-11-09T20:36:03.505Z,52471.60
2022-11-09T20:38:54.903Z,52459.14
2022-11-09T20:41:45.151Z,52463.56
2022-11-09T20:44:35.400Z,52455.93
2022-11-09T20:47:57.163Z,52446.68
2022-11-09T20:50:36.741Z,52467.98
2022-11-09T20:53:27.391Z,52455.52
2022-11-09T20:56:18.452Z,52460.75
2022-11-09T20:59:09.097Z,52467.18
2022-11-09T21:01:59.717Z,52478.84
2022-11-09T21:04:50.165Z,52470.39
2022-11-09T21:07:40.523Z,52473.21
2022-11-09T21:10:30.991Z,52463.96
2022-11-09T21:13:21.076Z,52462.76
2022-11-09T21:16:13.114Z,52463.16
2022-11-09T21:19:03.630Z,52455.12
2022-11-09T21:21:53.883Z,52465.57
2022-11-09T21:25:02.165Z,52458.34
2022-11-09T21:28:10.960Z,52453.11
2022-11-09T21:31:04.086Z,52444.68
2022-11-09T21:33:56.929Z,52470.39
2022-11-09T21:36:47.436Z,52469.19
2022-11-09T21:39:37.623Z,52452.30
2022-11-09T21:42:28.192Z,52459.95
2022-11-09T21:45:18.832Z,52467.58
2022-11-09T21:48:10.054Z,52451.11
2022-11-09T21:51:02.137Z,52451.91
2022-11-09T21:53:52.297Z,52474.41
2022-11-09T21:56:42.770Z,52447.89
2022-11-09T21:59:33.460Z,52470.39
2022-11-09T22:02:24.084Z,52476.82
2022-11-09T22:05:17.630Z,52459.95
2022-11-09T22:08:10.651Z,52479.64
2022-11-09T22:11:07.755Z,52455.52
2022-11-09T22:14:15.406Z,52485.66
2022-11-09T22:17:08.827Z,52465.17
2022-11-09T22:20:16.630Z,52461.96
2022-11-09T22:23:09.200Z,52466.38
2022-11-09T22:26:01.609Z,52464.37
2022-11-09T22:28:52.405Z,52464.77
2022-11-09T22:31:42.445Z,52443.07
2022-11-09T22:34:32.596Z,52479.24
2022-11-09T22:37:22.448Z,52450.70
2022-11-09T22:40:13.905Z,52455.93
2022-11-09T22:43:04.193Z,52452.71
2022-11-09T22:45:54.433Z,52465.17
2022-11-09T22:48:45.180Z,52466.38
2022-11-09T22:51:35.856Z,52458.74
2022-11-09T22:54:28.108Z,52455.93
2022-11-09T22:57:18.613Z,52460.75
2022-11-09T23:00:11.820Z,52479.24
2022-11-09T23:03:02.009Z,52476.43
2022-11-09T23:05:52.232Z,52477.23
2022-11-09T23:08:42.747Z,52474.01
2022-11-09T23:11:32.595Z,52464.77
2022-11-09T23:14:42.616Z,52477.23
2022-11-09T23:17:50.506Z,52460.75
2022-11-09T23:20:40.631Z,52494.51
2022-11-09T23:23:30.675Z,52482.05
2022-11-09T23:26:21.202Z,52466.38
2022-11-09T23:29:11.149Z,52486.88
2022-11-09T23:32:01.550Z,52479.24
2022-11-09T23:34:52.013Z,52494.91
2022-11-09T23:37:41.970Z,52490.49
2022-11-09T23:40:33.203Z,52471.20
2022-11-09T23:43:23.483Z,52474.81
2022-11-09T23:46:15.033Z,52479.24
2022-11-09T23:49:05.475Z,52493.30
2022-11-09T23:51:55.581Z,52491.29
2022-11-09T23:54:46.428Z,52486.87
2022-11-09T23:57:36.718Z,52488.48
